sensor_id;sensor_type;location;lat;lon;timestamp;temperature;humidity
27619;DHT22;15039;50.830;4.730;2022-08-11T00:00:04;21.30;95.70
27619;DHT22;15039;50.830;4.730;2022-08-11T00:02:40;21.30;95.70
27619;DHT22;15039;50.830;4.730;2022-08-11T00:05:13;21.30;95.80
27619;DHT22;15039;50.830;4.730;2022-08-11T00:07:48;21.20;96.10
27619;DHT22;15039;50.830;4.730;2022-08-11T00:10:20;21.10;96.10
27619;DHT22;15039;50.830;4.730;2022-08-11T00:12:52;21.10;96.10
27619;DHT22;15039;50.830;4.730;2022-08-11T00:15:18;21.10;96.30
27619;DHT22;15039;50.830;4.730;2022-08-11T00:17:45;21.00;96.20
27619;DHT22;15039;50.830;4.730;2022-08-11T00:20:13;21.00;96.20
27619;DHT22;15039;50.830;4.730;2022-08-11T00:22:42;21.00;96.40
27619;DHT22;15039;50.830;4.730;2022-08-11T00:25:14;20.90;96.40
27619;DHT22;15039;50.830;4.730;2022-08-11T00:27:40;20.90;96.40
27619;DHT22;15039;50.830;4.730;2022-08-11T00:30:07;20.90;96.50
27619;DHT22;15039;50.830;4.730;2022-08-11T00:32:38;20.80;96.20
27619;DHT22;15039;50.830;4.730;2022-08-11T00:35:06;20.80;96.20
27619;DHT22;15039;50.830;4.730;2022-08-11T00:37:33;20.80;96.50
27619;DHT22;15039;50.830;4.730;2022-08-11T00:40:02;20.80;96.00
27619;DHT22;15039;50.830;4.730;2022-08-11T00:45:23;20.80;96.50
27619;DHT22;15039;50.830;4.730;2022-08-11T00:50:44;20.70;96.70
27619;DHT22;15039;50.830;4.730;2022-08-11T00:53:49;20.70;96.80
27619;DHT22;15039;50.830;4.730;2022-08-11T00:59:39;20.50;96.90
27619;DHT22;15039;50.830;4.730;2022-08-11T01:02:24;20.50;97.00
27619;DHT22;15039;50.830;4.730;2022-08-11T01:16:47;20.50;95.90
27619;DHT22;15039;50.830;4.730;2022-08-11T01:22:57;20.40;96.40
27619;DHT22;15039;50.830;4.730;2022-08-11T01:37:01;20.20;97.00
27619;DHT22;15039;50.830;4.730;2022-08-11T01:47:54;20.00;97.40
27619;DHT22;15039;50.830;4.730;2022-08-11T01:54:08;20.00;97.60
27619;DHT22;15039;50.830;4.730;2022-08-11T01:56:57;19.90;97.60
27619;DHT22;15039;50.830;4.730;2022-08-11T01:59:33;19.80;97.70
27619;DHT22;15039;50.830;4.730;2022-08-11T02:10:53;19.70;97.80
27619;DHT22;15039;50.830;4.730;2022-08-11T02:19:04;19.80;97.80
27619;DHT22;15039;50.830;4.730;2022-08-11T02:21:59;19.70;97.90
27619;DHT22;15039;50.830;4.730;2022-08-11T02:25:02;19.60;98.10
27619;DHT22;15039;50.830;4.730;2022-08-11T02:27:47;19.60;98.10
27619;DHT22;15039;50.830;4.730;2022-08-11T02:30:16;19.60;98.00
27619;DHT22;15039;50.830;4.730;2022-08-11T02:35:46;19.60;97.80
27619;DHT22;15039;50.830;4.730;2022-08-11T02:38:29;19.60;97.50
27619;DHT22;15039;50.830;4.730;2022-08-11T02:41:15;19.60;97.60
27619;DHT22;15039;50.830;4.730;2022-08-11T02:44:15;19.50;97.60
27619;DHT22;15039;50.830;4.730;2022-08-11T02:47:31;19.50;97.90
27619;DHT22;15039;50.830;4.730;2022-08-11T02:49:40;19.40;98.00
27619;DHT22;15039;50.830;4.730;2022-08-11T02:52:34;19.30;98.00
27619;DHT22;15039;50.830;4.730;2022-08-11T02:58:10;19.20;98.70
27619;DHT22;15039;50.830;4.730;2022-08-11T03:01:22;19.10;98.80
27619;DHT22;15039;50.830;4.730;2022-08-11T03:04:02;19.20;98.90
27619;DHT22;15039;50.830;4.730;2022-08-11T03:06:59;19.10;98.90
27619;DHT22;15039;50.830;4.730;2022-08-11T03:09:41;19.10;99.10
27619;DHT22;15039;50.830;4.730;2022-08-11T03:12:12;18.90;99.30
27619;DHT22;15039;50.830;4.730;2022-08-11T03:15:11;18.90;99.40
27619;DHT22;15039;50.830;4.730;2022-08-11T03:18:24;18.80;99.40
27619;DHT22;15039;50.830;4.730;2022-08-11T03:23:48;18.80;99.40
27619;DHT22;15039;50.830;4.730;2022-08-11T03:29:19;18.70;99.50
27619;DHT22;15039;50.830;4.730;2022-08-11T03:32:08;18.70;99.60
27619;DHT22;15039;50.830;4.730;2022-08-11T03:34:38;18.60;99.70
27619;DHT22;15039;50.830;4.730;2022-08-11T03:47:52;18.50;99.90
27619;DHT22;15039;50.830;4.730;2022-08-11T04:01:37;18.30;99.90
27619;DHT22;15039;50.830;4.730;2022-08-11T04:19:04;18.10;99.90
27619;DHT22;15039;50.830;4.730;2022-08-11T04:56:08;18.00;99.90
27619;DHT22;15039;50.830;4.730;2022-08-11T05:11:15;18.00;99.90
27619;DHT22;15039;50.830;4.730;2022-08-11T05:13:51;18.00;99.90
27619;DHT22;15039;50.830;4.730;2022-08-11T05:16:50;18.00;99.90
27619;DHT22;15039;50.830;4.730;2022-08-11T05:19:35;18.10;99.90
27619;DHT22;15039;50.830;4.730;2022-08-11T05:22:23;18.20;99.90
27619;DHT22;15039;50.830;4.730;2022-08-11T05:25:15;18.20;99.90
27619;DHT22;15039;50.830;4.730;2022-08-11T05:30:56;18.40;99.90
27619;DHT22;15039;50.830;4.730;2022-08-11T05:33:51;18.50;99.90
27619;DHT22;15039;50.830;4.730;2022-08-11T05:37:01;18.60;99.90
27619;DHT22;15039;50.830;4.730;2022-08-11T05:39:31;18.70;99.90
27619;DHT22;15039;50.830;4.730;2022-08-11T05:42:17;18.90;99.90
27619;DHT22;15039;50.830;4.730;2022-08-11T05:45:13;19.10;99.90
27619;DHT22;15039;50.830;4.730;2022-08-11T05:47:58;19.10;99.90
27619;DHT22;15039;50.830;4.730;2022-08-11T05:50:57;19.30;99.90
27619;DHT22;15039;50.830;4.730;2022-08-11T05:54:08;19.50;99.90
27619;DHT22;15039;50.830;4.730;2022-08-11T05:56:55;19.50;99.90
27619;DHT22;15039;50.830;4.730;2022-08-11T05:59:22;19.60;99.90
27619;DHT22;15039;50.830;4.730;2022-08-11T06:01:49;19.50;99.90
27619;DHT22;15039;50.830;4.730;2022-08-11T06:09:21;19.80;99.80
27619;DHT22;15039;50.830;4.730;2022-08-11T06:11:48;20.00;99.90
27619;DHT22;15039;50.830;4.730;2022-08-11T06:14:14;20.50;99.60
27619;DHT22;15039;50.830;4.730;2022-08-11T06:16:41;20.80;98.80
27619;DHT22;15039;50.830;4.730;2022-08-11T06:19:08;21.20;98.40
27619;DHT22;15039;50.830;4.730;2022-08-11T06:21:34;21.60;98.00
27619;DHT22;15039;50.830;4.730;2022-08-11T06:24:03;21.80;97.70
27619;DHT22;15039;50.830;4.730;2022-08-11T06:26:30;21.90;97.40
27619;DHT22;15039;50.830;4.730;2022-08-11T06:28:58;22.00;97.10
27619;DHT22;15039;50.830;4.730;2022-08-11T06:31:26;22.20;96.90
27619;DHT22;15039;50.830;4.730;2022-08-11T06:36:56;22.00;96.80
27619;DHT22;15039;50.830;4.730;2022-08-11T06:42:06;21.80;97.00
27619;DHT22;15039;50.830;4.730;2022-08-11T06:45:39;21.90;96.80
27619;DHT22;15039;50.830;4.730;2022-08-11T06:47:34;21.90;96.80
27619;DHT22;15039;50.830;4.730;2022-08-11T06:50:00;21.90;96.50
27619;DHT22;15039;50.830;4.730;2022-08-11T06:52:46;21.90;96.60
27619;DHT22;15039;50.830;4.730;2022-08-11T06:55:14;21.70;96.60
27619;DHT22;15039;50.830;4.730;2022-08-11T06:58:15;21.80;96.80
27619;DHT22;15039;50.830;4.730;2022-08-11T07:01:10;21.90;96.90
27619;DHT22;15039;50.830;4.730;2022-08-11T07:03:42;22.00;96.50
27619;DHT22;15039;50.830;4.730;2022-08-11T07:15:05;22.40;96.50
27619;DHT22;15039;50.830;4.730;2022-08-11T07:17:52;22.50;96.20
27619;DHT22;15039;50.830;4.730;2022-08-11T07:20:38;22.60;95.80
27619;DHT22;15039;50.830;4.730;2022-08-11T07:23:23;22.80;95.40
27619;DHT22;15039;50.830;4.730;2022-08-11T07:26:09;22.90;95.00
27619;DHT22;15039;50.830;4.730;2022-08-11T07:28:54;22.80;95.20
27619;DHT22;15039;50.830;4.730;2022-08-11T07:33:58;22.80;95.20
27619;DHT22;15039;50.830;4.730;2022-08-11T07:36:29;22.90;95.50
27619;DHT22;15039;50.830;4.730;2022-08-11T07:38:56;23.00;95.40
27619;DHT22;15039;50.830;4.730;2022-08-11T07:41:23;23.00;95.40
27619;DHT22;15039;50.830;4.730;2022-08-11T07:43:52;23.20;94.80
27619;DHT22;15039;50.830;4.730;2022-08-11T07:46:19;23.40;94.60
27619;DHT22;15039;50.830;4.730;2022-08-11T07:49:07;23.50;94.10
27619;DHT22;15039;50.830;4.730;2022-08-11T07:51:53;23.60;94.30
27619;DHT22;15039;50.830;4.730;2022-08-11T07:54:38;23.70;93.80
27619;DHT22;15039;50.830;4.730;2022-08-11T07:57:07;23.80;94.00
27619;DHT22;15039;50.830;4.730;2022-08-11T07:59:52;23.80;94.00
27619;DHT22;15039;50.830;4.730;2022-08-11T08:02:39;24.00;93.90
27619;DHT22;15039;50.830;4.730;2022-08-11T08:05:24;24.20;93.50
27619;DHT22;15039;50.830;4.730;2022-08-11T08:08:08;24.30;93.50
27619;DHT22;15039;50.830;4.730;2022-08-11T08:10:54;24.30;93.30
27619;DHT22;15039;50.830;4.730;2022-08-11T08:13:40;24.40;93.50
27619;DHT22;15039;50.830;4.730;2022-08-11T08:16:25;24.50;93.20
27619;DHT22;15039;50.830;4.730;2022-08-11T08:19:11;24.60;92.80
27619;DHT22;15039;50.830;4.730;2022-08-11T08:21:40;24.70;92.70
27619;DHT22;15039;50.830;4.730;2022-08-11T08:24:06;24.70;92.80
27619;DHT22;15039;50.830;4.730;2022-08-11T08:26:32;24.90;92.50
27619;DHT22;15039;50.830;4.730;2022-08-11T08:29:17;25.00;92.70
27619;DHT22;15039;50.830;4.730;2022-08-11T08:32:03;25.10;92.50
27619;DHT22;15039;50.830;4.730;2022-08-11T08:34:29;25.20;92.20
27619;DHT22;15039;50.830;4.730;2022-08-11T08:36:55;25.40;92.10
27619;DHT22;15039;50.830;4.730;2022-08-11T08:39:21;25.50;92.30
27619;DHT22;15039;50.830;4.730;2022-08-11T08:41:55;25.50;92.30
27619;DHT22;15039;50.830;4.730;2022-08-11T08:44:22;25.60;92.20
27619;DHT22;15039;50.830;4.730;2022-08-11T08:46:53;25.60;92.00
27619;DHT22;15039;50.830;4.730;2022-08-11T08:49:24;25.80;91.60
27619;DHT22;15039;50.830;4.730;2022-08-11T08:51:53;25.90;91.30
27619;DHT22;15039;50.830;4.730;2022-08-11T08:54:24;25.90;91.20
27619;DHT22;15039;50.830;4.730;2022-08-11T08:56:53;26.00;90.70
27619;DHT22;15039;50.830;4.730;2022-08-11T08:59:22;26.00;90.90
27619;DHT22;15039;50.830;4.730;2022-08-11T09:01:57;26.10;91.10
27619;DHT22;15039;50.830;4.730;2022-08-11T09:04:24;26.30;90.80
27619;DHT22;15039;50.830;4.730;2022-08-11T09:06:52;26.40;89.60
27619;DHT22;15039;50.830;4.730;2022-08-11T09:09:19;26.50;89.60
27619;DHT22;15039;50.830;4.730;2022-08-11T09:11:46;26.70;90.00
27619;DHT22;15039;50.830;4.730;2022-08-11T09:14:34;26.60;89.20
27619;DHT22;15039;50.830;4.730;2022-08-11T09:17:19;26.80;88.50
27619;DHT22;15039;50.830;4.730;2022-08-11T09:19:46;26.90;87.80
27619;DHT22;15039;50.830;4.730;2022-08-11T09:22:17;27.00;87.00
27619;DHT22;15039;50.830;4.730;2022-08-11T09:25:02;27.10;86.90
27619;DHT22;15039;50.830;4.730;2022-08-11T09:27:47;27.20;85.80
27619;DHT22;15039;50.830;4.730;2022-08-11T09:30:13;27.30;85.50
27619;DHT22;15039;50.830;4.730;2022-08-11T09:32:38;27.40;85.20
27619;DHT22;15039;50.830;4.730;2022-08-11T09:35:07;27.50;84.80
27619;DHT22;15039;50.830;4.730;2022-08-11T09:37:33;27.50;84.10
27619;DHT22;15039;50.830;4.730;2022-08-11T09:40:19;27.50;85.60
27619;DHT22;15039;50.830;4.730;2022-08-11T09:42:56;27.60;85.20
27619;DHT22;15039;50.830;4.730;2022-08-11T09:45:44;27.70;82.60
27619;DHT22;15039;50.830;4.730;2022-08-11T09:48:11;27.80;84.40
27619;DHT22;15039;50.830;4.730;2022-08-11T09:50:36;27.80;84.00
27619;DHT22;15039;50.830;4.730;2022-08-11T09:53:04;27.80;84.50
27619;DHT22;15039;50.830;4.730;2022-08-11T09:55:32;27.80;83.90
27619;DHT22;15039;50.830;4.730;2022-08-11T09:57:59;27.80;84.40
27619;DHT22;15039;50.830;4.730;2022-08-11T10:00:38;27.90;84.10
27619;DHT22;15039;50.830;4.730;2022-08-11T10:03:21;27.90;84.10
27619;DHT22;15039;50.830;4.730;2022-08-11T10:05:58;28.10;83.50
27619;DHT22;15039;50.830;4.730;2022-08-11T10:08:45;28.10;84.40
27619;DHT22;15039;50.830;4.730;2022-08-11T10:11:14;28.20;83.80
27619;DHT22;15039;50.830;4.730;2022-08-11T10:13:44;28.30;84.00
27619;DHT22;15039;50.830;4.730;2022-08-11T10:16:31;28.40;83.80
27619;DHT22;15039;50.830;4.730;2022-08-11T10:19:01;28.50;84.30
27619;DHT22;15039;50.830;4.730;2022-08-11T10:21:38;28.60;82.60
27619;DHT22;15039;50.830;4.730;2022-08-11T10:24:06;28.70;81.50
27619;DHT22;15039;50.830;4.730;2022-08-11T10:26:52;28.80;83.10
27619;DHT22;15039;50.830;4.730;2022-08-11T10:29:30;28.80;82.00
27619;DHT22;15039;50.830;4.730;2022-08-11T10:32:20;29.00;83.20
27619;DHT22;15039;50.830;4.730;2022-08-11T10:35:05;29.00;80.50
27619;DHT22;15039;50.830;4.730;2022-08-11T10:37:35;29.10;80.20
27619;DHT22;15039;50.830;4.730;2022-08-11T10:40:03;29.20;80.10
27619;DHT22;15039;50.830;4.730;2022-08-11T10:42:31;29.20;79.80
27619;DHT22;15039;50.830;4.730;2022-08-11T10:45:16;29.30;80.40
27619;DHT22;15039;50.830;4.730;2022-08-11T10:48:01;29.40;78.40
27619;DHT22;15039;50.830;4.730;2022-08-11T10:50:29;29.40;77.60
27619;DHT22;15039;50.830;4.730;2022-08-11T10:53:14;29.50;78.50
27619;DHT22;15039;50.830;4.730;2022-08-11T10:56:02;29.30;80.00
27619;DHT22;15039;50.830;4.730;2022-08-11T10:58:47;29.30;81.40
27619;DHT22;15039;50.830;4.730;2022-08-11T11:06:47;29.50;80.30
27619;DHT22;15039;50.830;4.730;2022-08-11T11:14:52;29.70;78.70
27619;DHT22;15039;50.830;4.730;2022-08-11T11:17:54;29.70;78.60
27619;DHT22;15039;50.830;4.730;2022-08-11T11:20:58;29.90;78.50
27619;DHT22;15039;50.830;4.730;2022-08-11T11:29:15;30.10;76.00
27619;DHT22;15039;50.830;4.730;2022-08-11T11:32:17;30.10;75.70
27619;DHT22;15039;50.830;4.730;2022-08-11T11:37:51;30.30;75.20
27619;DHT22;15039;50.830;4.730;2022-08-11T11:40:19;30.40;74.80
27619;DHT22;15039;50.830;4.730;2022-08-11T11:42:50;30.30;73.60
27619;DHT22;15039;50.830;4.730;2022-08-11T11:45:18;30.40;73.20
27619;DHT22;15039;50.830;4.730;2022-08-11T11:47:47;30.50;73.50
27619;DHT22;15039;50.830;4.730;2022-08-11T11:50:22;30.60;71.30
27619;DHT22;15039;50.830;4.730;2022-08-11T11:52:49;30.50;70.20
27619;DHT22;15039;50.830;4.730;2022-08-11T11:55:18;30.60;71.10
27619;DHT22;15039;50.830;4.730;2022-08-11T11:57:44;30.70;72.20
27619;DHT22;15039;50.830;4.730;2022-08-11T12:00:29;30.80;71.80
27619;DHT22;15039;50.830;4.730;2022-08-11T12:03:14;30.90;71.70
27619;DHT22;15039;50.830;4.730;2022-08-11T12:05:42;30.80;71.70
27619;DHT22;15039;50.830;4.730;2022-08-11T12:08:08;30.80;71.00
27619;DHT22;15039;50.830;4.730;2022-08-11T12:10:57;30.70;72.00
27619;DHT22;15039;50.830;4.730;2022-08-11T12:13:44;30.80;71.50
27619;DHT22;15039;50.830;4.730;2022-08-11T12:16:12;30.90;71.80
27619;DHT22;15039;50.830;4.730;2022-08-11T12:18:40;30.90;71.50
27619;DHT22;15039;50.830;4.730;2022-08-11T12:21:08;30.90;71.80
27619;DHT22;15039;50.830;4.730;2022-08-11T12:23:36;30.90;72.30
27619;DHT22;15039;50.830;4.730;2022-08-11T12:26:21;31.00;72.00
27619;DHT22;15039;50.830;4.730;2022-08-11T12:29:09;31.00;72.70
27619;DHT22;15039;50.830;4.730;2022-08-11T12:31:37;31.00;72.50
27619;DHT22;15039;50.830;4.730;2022-08-11T12:34:10;31.20;71.70
27619;DHT22;15039;50.830;4.730;2022-08-11T12:36:39;31.20;72.10
27619;DHT22;15039;50.830;4.730;2022-08-11T12:39:08;31.40;71.10
27619;DHT22;15039;50.830;4.730;2022-08-11T12:41:36;31.30;71.70
27619;DHT22;15039;50.830;4.730;2022-08-11T12:44:25;31.30;71.80
27619;DHT22;15039;50.830;4.730;2022-08-11T12:47:12;31.40;71.20
27619;DHT22;15039;50.830;4.730;2022-08-11T12:49:43;31.40;71.90
27619;DHT22;15039;50.830;4.730;2022-08-11T12:52:44;31.20;72.00
27619;DHT22;15039;50.830;4.730;2022-08-11T12:55:16;31.30;72.30
27619;DHT22;15039;50.830;4.730;2022-08-11T12:58:04;31.50;71.70
27619;DHT22;15039;50.830;4.730;2022-08-11T13:00:42;31.50;71.50
27619;DHT22;15039;50.830;4.730;2022-08-11T13:03:27;31.50;72.80
27619;DHT22;15039;50.830;4.730;2022-08-11T13:06:12;31.60;71.70
27619;DHT22;15039;50.830;4.730;2022-08-11T13:08:39;31.80;71.30
27619;DHT22;15039;50.830;4.730;2022-08-11T13:11:06;31.80;70.50
27619;DHT22;15039;50.830;4.730;2022-08-11T13:13:51;31.80;70.10
27619;DHT22;15039;50.830;4.730;2022-08-11T13:16:21;31.80;70.50
27619;DHT22;15039;50.830;4.730;2022-08-11T13:18:48;31.70;70.70
27619;DHT22;15039;50.830;4.730;2022-08-11T13:21:15;31.70;71.50
27619;DHT22;15039;50.830;4.730;2022-08-11T13:23:41;31.60;70.10
27619;DHT22;15039;50.830;4.730;2022-08-11T13:26:07;31.70;71.70
27619;DHT22;15039;50.830;4.730;2022-08-11T13:28:35;31.80;69.90
27619;DHT22;15039;50.830;4.730;2022-08-11T13:31:02;31.80;69.90
27619;DHT22;15039;50.830;4.730;2022-08-11T13:33:50;31.90;70.40
27619;DHT22;15039;50.830;4.730;2022-08-11T13:36:19;31.90;70.70
27619;DHT22;15039;50.830;4.730;2022-08-11T13:38:45;31.90;70.30
27619;DHT22;15039;50.830;4.730;2022-08-11T13:41:13;32.00;69.60
27619;DHT22;15039;50.830;4.730;2022-08-11T13:43:58;32.10;70.40
27619;DHT22;15039;50.830;4.730;2022-08-11T13:46:24;32.10;68.70
27619;DHT22;15039;50.830;4.730;2022-08-11T13:48:53;32.20;69.90
27619;DHT22;15039;50.830;4.730;2022-08-11T13:51:20;32.30;69.30
27619;DHT22;15039;50.830;4.730;2022-08-11T13:56:28;32.40;69.40
27619;DHT22;15039;50.830;4.730;2022-08-11T13:58:55;32.50;68.20
27619;DHT22;15039;50.830;4.730;2022-08-11T14:01:27;32.30;67.70
27619;DHT22;15039;50.830;4.730;2022-08-11T14:03:54;32.30;68.80
27619;DHT22;15039;50.830;4.730;2022-08-11T14:06:23;32.40;69.20
27619;DHT22;15039;50.830;4.730;2022-08-11T14:08:51;32.60;68.30
27619;DHT22;15039;50.830;4.730;2022-08-11T14:11:19;32.60;68.80
27619;DHT22;15039;50.830;4.730;2022-08-11T14:14:04;32.60;68.40
27619;DHT22;15039;50.830;4.730;2022-08-11T14:16:35;32.60;68.30
27619;DHT22;15039;50.830;4.730;2022-08-11T14:19:06;32.70;68.60
27619;DHT22;15039;50.830;4.730;2022-08-11T14:21:37;32.60;67.10
27619;DHT22;15039;50.830;4.730;2022-08-11T14:24:23;32.60;67.20
27619;DHT22;15039;50.830;4.730;2022-08-11T14:26:50;32.60;68.10
27619;DHT22;15039;50.830;4.730;2022-08-11T14:29:19;32.60;67.70
27619;DHT22;15039;50.830;4.730;2022-08-11T14:31:49;32.60;68.70
27619;DHT22;15039;50.830;4.730;2022-08-11T14:34:18;32.70;68.00
27619;DHT22;15039;50.830;4.730;2022-08-11T14:36:57;32.70;67.60
27619;DHT22;15039;50.830;4.730;2022-08-11T14:39:24;32.70;66.80
27619;DHT22;15039;50.830;4.730;2022-08-11T14:42:02;32.60;67.40
27619;DHT22;15039;50.830;4.730;2022-08-11T14:44:50;32.80;67.80
27619;DHT22;15039;50.830;4.730;2022-08-11T14:47:38;32.80;66.20
27619;DHT22;15039;50.830;4.730;2022-08-11T14:50:07;32.80;67.20
27619;DHT22;15039;50.830;4.730;2022-08-11T14:52:33;32.80;66.50
27619;DHT22;15039;50.830;4.730;2022-08-11T14:55:00;32.80;66.00
27619;DHT22;15039;50.830;4.730;2022-08-11T14:57:45;32.80;66.60
27619;DHT22;15039;50.830;4.730;2022-08-11T15:00:14;32.80;65.80
27619;DHT22;15039;50.830;4.730;2022-08-11T15:02:41;32.90;65.10
27619;DHT22;15039;50.830;4.730;2022-08-11T15:05:26;33.00;65.00
27619;DHT22;15039;50.830;4.730;2022-08-11T15:07:53;32.70;63.70
27619;DHT22;15039;50.830;4.730;2022-08-11T15:10:20;32.70;64.40
27619;DHT22;15039;50.830;4.730;2022-08-11T15:12:47;32.60;63.60
27619;DHT22;15039;50.830;4.730;2022-08-11T15:15:14;32.60;64.00
27619;DHT22;15039;50.830;4.730;2022-08-11T15:18:02;32.50;63.30
27619;DHT22;15039;50.830;4.730;2022-08-11T15:20:29;32.60;63.60
27619;DHT22;15039;50.830;4.730;2022-08-11T15:23:14;32.70;63.90
27619;DHT22;15039;50.830;4.730;2022-08-11T15:26:02;32.70;62.20
27619;DHT22;15039;50.830;4.730;2022-08-11T15:28:32;32.90;62.60
27619;DHT22;15039;50.830;4.730;2022-08-11T15:31:18;32.80;61.40
27619;DHT22;15039;50.830;4.730;2022-08-11T15:33:55;32.80;61.80
27619;DHT22;15039;50.830;4.730;2022-08-11T15:36:41;32.70;61.50
27619;DHT22;15039;50.830;4.730;2022-08-11T15:39:31;32.80;62.00
27619;DHT22;15039;50.830;4.730;2022-08-11T15:42:02;33.00;62.30
27619;DHT22;15039;50.830;4.730;2022-08-11T15:44:55;33.20;61.90
27619;DHT22;15039;50.830;4.730;2022-08-11T15:47:45;33.20;60.40
27619;DHT22;15039;50.830;4.730;2022-08-11T15:50:15;33.10;61.00
27619;DHT22;15039;50.830;4.730;2022-08-11T15:52:51;33.10;62.10
27619;DHT22;15039;50.830;4.730;2022-08-11T15:55:17;33.10;61.60
27619;DHT22;15039;50.830;4.730;2022-08-11T15:57:46;33.10;61.70
27619;DHT22;15039;50.830;4.730;2022-08-11T16:00:31;33.00;61.70
27619;DHT22;15039;50.830;4.730;2022-08-11T16:03:17;33.10;61.90
27619;DHT22;15039;50.830;4.730;2022-08-11T16:06:02;33.00;62.70
27619;DHT22;15039;50.830;4.730;2022-08-11T16:08:29;32.70;63.00
27619;DHT22;15039;50.830;4.730;2022-08-11T16:10:55;32.70;62.00
27619;DHT22;15039;50.830;4.730;2022-08-11T16:13:23;32.70;62.80
27619;DHT22;15039;50.830;4.730;2022-08-11T16:15:53;32.80;63.40
27619;DHT22;15039;50.830;4.730;2022-08-11T16:18:52;32.80;63.40
27619;DHT22;15039;50.830;4.730;2022-08-11T16:21:26;32.80;63.10
27619;DHT22;15039;50.830;4.730;2022-08-11T16:23:56;32.90;63.90
27619;DHT22;15039;50.830;4.730;2022-08-11T16:26:23;32.90;63.10
27619;DHT22;15039;50.830;4.730;2022-08-11T16:28:51;33.10;63.20
27619;DHT22;15039;50.830;4.730;2022-08-11T16:31:19;32.80;62.30
27619;DHT22;15039;50.830;4.730;2022-08-11T16:33:46;32.80;62.80
27619;DHT22;15039;50.830;4.730;2022-08-11T16:36:14;32.70;62.90
27619;DHT22;15039;50.830;4.730;2022-08-11T16:38:58;32.70;63.80
27619;DHT22;15039;50.830;4.730;2022-08-11T16:41:27;32.80;64.30
27619;DHT22;15039;50.830;4.730;2022-08-11T16:44:13;32.90;63.80
27619;DHT22;15039;50.830;4.730;2022-08-11T16:46:59;33.00;63.30
27619;DHT22;15039;50.830;4.730;2022-08-11T16:49:30;32.90;62.80
27619;DHT22;15039;50.830;4.730;2022-08-11T16:51:57;33.00;63.10
27619;DHT22;15039;50.830;4.730;2022-08-11T16:54:32;33.10;63.00
27619;DHT22;15039;50.830;4.730;2022-08-11T16:57:01;33.30;62.60
27619;DHT22;15039;50.830;4.730;2022-08-11T16:59:48;33.80;62.00
27619;DHT22;15039;50.830;4.730;2022-08-11T17:02:16;34.50;61.30
27619;DHT22;15039;50.830;4.730;2022-08-11T17:05:17;34.90;59.90
27619;DHT22;15039;50.830;4.730;2022-08-11T17:08:04;35.30;61.00
27619;DHT22;15039;50.830;4.730;2022-08-11T17:10:56;35.80;59.20
27619;DHT22;15039;50.830;4.730;2022-08-11T17:16:10;35.90;58.70
27619;DHT22;15039;50.830;4.730;2022-08-11T17:23:42;36.40;58.50
27619;DHT22;15039;50.830;4.730;2022-08-11T17:26:21;36.50;58.30
27619;DHT22;15039;50.830;4.730;2022-08-11T17:28:50;36.40;58.30
27619;DHT22;15039;50.830;4.730;2022-08-11T17:31:19;36.50;58.30
27619;DHT22;15039;50.830;4.730;2022-08-11T17:34:06;36.60;58.20
27619;DHT22;15039;50.830;4.730;2022-08-11T17:36:54;36.60;57.90
27619;DHT22;15039;50.830;4.730;2022-08-11T17:39:24;36.30;58.50
27619;DHT22;15039;50.830;4.730;2022-08-11T17:41:54;36.70;58.60
27619;DHT22;15039;50.830;4.730;2022-08-11T17:44:39;36.90;58.60
27619;DHT22;15039;50.830;4.730;2022-08-11T17:47:26;36.50;58.60
27619;DHT22;15039;50.830;4.730;2022-08-11T17:50:11;36.40;58.60
27619;DHT22;15039;50.830;4.730;2022-08-11T17:52:40;36.40;58.60
27619;DHT22;15039;50.830;4.730;2022-08-11T17:55:24;36.60;58.80
27619;DHT22;15039;50.830;4.730;2022-08-11T17:58:08;36.60;58.80
27619;DHT22;15039;50.830;4.730;2022-08-11T18:00:53;36.20;58.70
27619;DHT22;15039;50.830;4.730;2022-08-11T18:03:21;35.90;59.00
27619;DHT22;15039;50.830;4.730;2022-08-11T18:06:00;35.20;59.50
27619;DHT22;15039;50.830;4.730;2022-08-11T18:08:29;34.40;60.50
27619;DHT22;15039;50.830;4.730;2022-08-11T18:11:15;34.00;61.50
27619;DHT22;15039;50.830;4.730;2022-08-11T18:14:03;33.50;62.10
27619;DHT22;15039;50.830;4.730;2022-08-11T18:16:49;33.10;62.90
27619;DHT22;15039;50.830;4.730;2022-08-11T18:19:33;32.90;63.90
27619;DHT22;15039;50.830;4.730;2022-08-11T18:22:21;32.60;64.10
27619;DHT22;15039;50.830;4.730;2022-08-11T18:25:12;32.30;64.70
27619;DHT22;15039;50.830;4.730;2022-08-11T18:27:58;32.10;65.10
27619;DHT22;15039;50.830;4.730;2022-08-11T18:30:45;31.90;65.50
27619;DHT22;15039;50.830;4.730;2022-08-11T18:33:36;31.70;66.20
27619;DHT22;15039;50.830;4.730;2022-08-11T18:36:26;31.60;66.10
27619;DHT22;15039;50.830;4.730;2022-08-11T18:39:13;31.40;66.20
27619;DHT22;15039;50.830;4.730;2022-08-11T18:42:00;31.30;66.90
27619;DHT22;15039;50.830;4.730;2022-08-11T18:44:47;31.20;66.80
27619;DHT22;15039;50.830;4.730;2022-08-11T18:47:33;31.00;66.90
27619;DHT22;15039;50.830;4.730;2022-08-11T18:50:18;30.90;67.80
27619;DHT22;15039;50.830;4.730;2022-08-11T18:53:05;30.70;68.20
27619;DHT22;15039;50.830;4.730;2022-08-11T18:55:51;30.50;68.40
27619;DHT22;15039;50.830;4.730;2022-08-11T18:58:36;30.30;68.80
27619;DHT22;15039;50.830;4.730;2022-08-11T19:01:24;30.10;69.30
27619;DHT22;15039;50.830;4.730;2022-08-11T19:04:10;29.90;69.80
27619;DHT22;15039;50.830;4.730;2022-08-11T19:06:56;29.70;70.30
27619;DHT22;15039;50.830;4.730;2022-08-11T19:09:43;29.40;70.70
27619;DHT22;15039;50.830;4.730;2022-08-11T19:12:31;29.30;71.00
27619;DHT22;15039;50.830;4.730;2022-08-11T19:15:18;29.20;71.60
27619;DHT22;15039;50.830;4.730;2022-08-11T19:18:04;29.00;71.90
27619;DHT22;15039;50.830;4.730;2022-08-11T19:20:50;28.80;71.70
27619;DHT22;15039;50.830;4.730;2022-08-11T19:23:42;28.80;72.00
27619;DHT22;15039;50.830;4.730;2022-08-11T19:26:28;28.70;72.50
27619;DHT22;15039;50.830;4.730;2022-08-11T19:29:14;28.40;73.40
27619;DHT22;15039;50.830;4.730;2022-08-11T19:32:01;28.30;74.30
27619;DHT22;15039;50.830;4.730;2022-08-11T19:34:46;28.10;76.50
27619;DHT22;15039;50.830;4.730;2022-08-11T19:37:32;27.90;76.30
27619;DHT22;15039;50.830;4.730;2022-08-11T19:40:16;27.80;76.00
27619;DHT22;15039;50.830;4.730;2022-08-11T19:43:02;27.60;77.50
27619;DHT22;15039;50.830;4.730;2022-08-11T19:45:48;27.60;77.40
27619;DHT22;15039;50.830;4.730;2022-08-11T19:48:34;27.50;77.30
27619;DHT22;15039;50.830;4.730;2022-08-11T19:51:19;27.40;78.20
27619;DHT22;15039;50.830;4.730;2022-08-11T19:54:05;27.30;78.30
27619;DHT22;15039;50.830;4.730;2022-08-11T19:56:50;27.20;78.50
27619;DHT22;15039;50.830;4.730;2022-08-11T19:59:35;27.20;77.90
27619;DHT22;15039;50.830;4.730;2022-08-11T20:02:21;27.10;79.00
27619;DHT22;15039;50.830;4.730;2022-08-11T20:05:06;27.00;79.50
27619;DHT22;15039;50.830;4.730;2022-08-11T20:07:53;26.80;80.20